createdAt,value
2017-09-23T00:00:37.389Z,77.60
2017-09-23T00:03:05.602Z,77.30
2017-09-23T00:05:34.786Z,77.50
2017-09-23T00:08:03.858Z,78.70
2017-09-23T00:10:32.077Z,78.70
2017-09-23T00:13:00.306Z,78.80
2017-09-23T00:15:28.593Z,79.20
2017-09-23T00:17:56.835Z,78.80
2017-09-23T00:20:25.041Z,78.10
2017-09-23T00:22:53.426Z,77.60
2017-09-23T00:25:21.645Z,77.30
2017-09-23T00:27:50.652Z,76.60
2017-09-23T00:30:18.973Z,76.60
2017-09-23T00:32:47.985Z,77.30
2017-09-23T00:35:16.792Z,77.30
2017-09-23T00:37:45.784Z,77.00
2017-09-23T00:40:14.814Z,77.70
2017-09-23T00:42:43.017Z,77.70
2017-09-23T00:45:12.096Z,76.70
2017-09-23T00:47:40.330Z,76.60
2017-09-23T00:50:09.315Z,76.50
2017-09-23T00:52:38.362Z,77.60
2017-09-23T00:55:06.625Z,77.50
2017-09-23T00:57:34.857Z,77.50
2017-09-23T01:00:05.758Z,76.70
2017-09-23T01:02:33.959Z,76.70
2017-09-23T01:05:02.184Z,77.30
2017-09-23T01:07:30.397Z,77.90
2017-09-23T01:10:00.655Z,78.20
2017-09-23T01:12:29.633Z,77.60
2017-09-23T01:14:58.617Z,77.40
2017-09-23T01:17:26.832Z,77.30
2017-09-23T01:19:55.062Z,77.70
2017-09-23T01:22:24.779Z,76.90
2017-09-23T01:24:52.975Z,76.90
2017-09-23T01:27:22.947Z,76.90
2017-09-23T01:29:51.618Z,76.90
2017-09-23T01:32:20.680Z,78.00
2017-09-23T01:34:48.894Z,77.90
2017-09-23T01:37:17.998Z,77.90
2017-09-23T01:39:46.978Z,78.70
2017-09-23T01:42:15.189Z,78.60
2017-09-23T01:44:44.180Z,79.60
2017-09-23T01:47:12.525Z,79.40
2017-09-23T01:49:40.741Z,79.90
2017-09-23T01:52:09.255Z,78.80
2017-09-23T01:54:38.418Z,77.80
2017-09-23T01:57:06.634Z,76.90
2017-09-23T01:59:34.842Z,77.30
2017-09-23T02:02:03.027Z,76.60
2017-09-23T02:04:31.258Z,76.20
2017-09-23T02:06:59.478Z,75.70
2017-09-23T02:09:27.721Z,76.00
2017-09-23T02:11:55.938Z,76.90
2017-09-23T02:14:24.146Z,78.30
2017-09-23T02:16:52.373Z,78.00
2017-09-23T02:19:22.269Z,77.60
2017-09-23T02:21:50.477Z,78.30
2017-09-23T02:24:18.686Z,78.20
2017-09-23T02:26:46.906Z,78.20
2017-09-23T02:29:15.120Z,77.10
2017-09-23T02:31:44.109Z,76.80
2017-09-23T02:34:13.096Z,76.60
2017-09-23T02:36:42.068Z,77.20
2017-09-23T02:39:10.310Z,77.20
2017-09-23T02:41:38.666Z,77.20
2017-09-23T02:44:06.994Z,77.50
2017-09-23T02:46:35.264Z,77.60
2017-09-23T02:49:03.493Z,78.40
2017-09-23T02:51:31.692Z,78.20
2017-09-23T02:54:00.683Z,76.80
2017-09-23T02:56:29.662Z,76.30
2017-09-23T02:58:57.873Z,76.20
2017-09-23T03:01:26.848Z,76.40
2017-09-23T03:03:55.054Z,76.40
2017-09-23T03:06:24.035Z,77.30
2017-09-23T03:08:52.257Z,77.20
2017-09-23T03:11:20.500Z,77.00
2017-09-23T03:13:48.750Z,77.70
2017-09-23T03:16:17.005Z,78.90
2017-09-23T03:18:46.059Z,80.20
2017-09-23T03:21:15.029Z,79.30
2017-09-23T03:23:44.758Z,78.90
2017-09-23T03:26:12.980Z,78.80
2017-09-23T03:28:41.196Z,78.00
2017-09-23T03:31:10.258Z,77.70
2017-09-23T03:33:38.554Z,77.20
2017-09-23T03:36:06.789Z,77.10
2017-09-23T03:38:35.012Z,76.90
2017-09-23T03:41:03.999Z,76.60
2017-09-23T03:43:32.271Z,76.60
2017-09-23T03:46:00.557Z,76.10
2017-09-23T03:48:28.795Z,76.40
2017-09-23T03:50:57.045Z,78.80
2017-09-23T03:53:26.018Z,79.50
2017-09-23T03:55:54.252Z,79.40
2017-09-23T03:58:22.457Z,80.50
2017-09-23T04:00:52.224Z,80.00
2017-09-23T04:03:20.428Z,80.00
2017-09-23T04:05:48.642Z,79.40
2017-09-23T04:08:17.605Z,78.20
2017-09-23T04:10:45.834Z,78.00
2017-09-23T04:13:14.036Z,78.40
2017-09-23T04:15:42.271Z,78.60
2017-09-23T04:18:10.493Z,77.90
2017-09-23T04:20:38.716Z,77.80
2017-09-23T04:23:07.780Z,78.50
2017-09-23T04:25:36.028Z,78.40
2017-09-23T04:28:04.253Z,78.00
2017-09-23T04:30:33.228Z,77.10
2017-09-23T04:33:01.400Z,77.10
2017-09-23T04:35:30.355Z,76.70
2017-09-23T04:37:58.526Z,76.60
2017-09-23T04:40:26.736Z,77.40
2017-09-23T04:42:54.882Z,76.80
2017-09-23T04:45:23.827Z,76.00
2017-09-23T04:47:52.015Z,76.00
2017-09-23T04:50:20.204Z,75.70
2017-09-23T04:52:49.995Z,75.20
2017-09-23T04:55:18.172Z,75.20
2017-09-23T04:57:46.358Z,75.90
2017-09-23T05:00:14.554Z,75.90
2017-09-23T05:02:43.508Z,76.20
2017-09-23T05:05:11.674Z,76.20
2017-09-23T05:07:39.887Z,76.30
2017-09-23T05:10:08.055Z,77.30
2017-09-23T05:12:37.834Z,77.40
2017-09-23T05:15:06.016Z,78.00
2017-09-23T05:17:34.187Z,77.50
2017-09-23T05:20:02.338Z,77.20
2017-09-23T05:22:30.529Z,77.50
2017-09-23T05:24:58.689Z,76.70
2017-09-23T05:27:26.880Z,76.50
2017-09-23T05:29:55.057Z,76.10
2017-09-23T05:32:24.199Z,77.70
2017-09-23T05:34:52.373Z,77.60
2017-09-23T05:37:21.336Z,77.80
2017-09-23T05:39:49.516Z,77.80
2017-09-23T05:42:19.198Z,78.60
2017-09-23T05:44:47.365Z,78.60
2017-09-23T05:47:15.539Z,79.40
2017-09-23T05:49:43.719Z,78.90
2017-09-23T05:52:11.895Z,77.40
2017-09-23T05:54:40.058Z,78.00
2017-09-23T05:57:08.253Z,78.60
2017-09-23T05:59:36.411Z,78.70
2017-09-23T06:02:04.668Z,79.00
2017-09-23T06:04:32.869Z,78.30
2017-09-23T06:07:01.058Z,77.40
2017-09-23T06:09:29.248Z,76.90
2017-09-23T06:11:58.919Z,77.40
2017-09-23T06:14:27.113Z,77.40
2017-09-23T06:16:55.330Z,77.00
2017-09-23T06:19:24.277Z,77.20
2017-09-23T06:21:53.399Z,77.20
2017-09-23T06:24:21.586Z,77.00
2017-09-23T06:26:50.533Z,77.20
2017-09-23T06:29:18.745Z,77.10
2017-09-23T06:31:48.461Z,77.10
2017-09-23T06:34:16.631Z,77.10
2017-09-23T06:36:45.847Z,77.20
2017-09-23T06:39:14.767Z,77.40
2017-09-23T06:41:43.057Z,77.30
2017-09-23T06:44:11.224Z,78.30
2017-09-23T06:46:39.414Z,78.10
2017-09-23T06:49:07.611Z,78.20
2017-09-23T06:51:35.785Z,78.10
2017-09-23T06:54:03.971Z,77.80
2017-09-23T06:56:32.199Z,78.40
2017-09-23T06:59:00.383Z,77.80
2017-09-23T07:01:28.641Z,77.90
2017-09-23T07:03:56.849Z,78.40
2017-09-23T07:06:25.016Z,78.00
2017-09-23T07:08:53.229Z,78.50
2017-09-23T07:11:22.249Z,78.20
2017-09-23T07:13:50.428Z,78.20
2017-09-23T07:16:18.636Z,78.10
2017-09-23T07:18:46.820Z,79.00
2017-09-23T07:21:15.988Z,78.90
2017-09-23T07:23:44.168Z,78.80
2017-09-23T07:26:13.266Z,78.00
2017-09-23T07:28:41.496Z,78.00
2017-09-23T07:31:10.422Z,78.30
2017-09-23T07:33:38.668Z,78.20
2017-09-23T07:36:06.865Z,77.90
2017-09-23T07:38:35.051Z,78.10
2017-09-23T07:41:03.246Z,78.20
2017-09-23T07:43:31.450Z,79.00
2017-09-23T07:46:00.398Z,79.50
2017-09-23T07:48:28.586Z,79.40
2017-09-23T07:50:56.912Z,79.00
2017-09-23T07:53:25.084Z,78.50
2017-09-23T07:55:55.022Z,79.00
2017-09-23T07:58:23.245Z,78.30
2017-09-23T08:00:51.455Z,78.40
2017-09-23T08:03:19.638Z,78.10
2017-09-23T08:05:47.851Z,77.80
2017-09-23T08:08:17.641Z,77.20
2017-09-23T08:10:45.814Z,77.20
2017-09-23T08:13:14.051Z,77.20
2017-09-23T08:15:42.993Z,79.20
2017-09-23T08:18:11.963Z,78.70
2017-09-23T08:20:40.172Z,78.60
2017-09-23T08:23:09.157Z,79.50
2017-09-23T08:25:37.357Z,79.50
2017-09-23T08:28:06.584Z,79.00
2017-09-23T08:30:34.772Z,78.90
2017-09-23T08:33:02.958Z,78.20
2017-09-23T08:35:31.889Z,78.60
2017-09-23T08:38:00.093Z,78.60
2017-09-23T08:40:28.341Z,78.30
2017-09-23T08:42:56.528Z,78.20
2017-09-23T08:45:25.641Z,78.40
2017-09-23T08:47:53.837Z,78.10
2017-09-23T08:50:22.797Z,76.30
2017-09-23T08:52:50.974Z,76.20
2017-09-23T08:55:19.152Z,76.60
2017-09-23T08:57:47.581Z,75.70
2017-09-23T09:00:16.699Z,74.80
2017-09-23T09:02:44.880Z,74.80
2017-09-23T09:05:13.068Z,75.50
2017-09-23T09:07:41.251Z,75.60
2017-09-23T09:10:09.450Z,75.00
2017-09-23T09:12:38.910Z,74.70
2017-09-23T09:15:07.101Z,74.70
2017-09-23T09:17:35.389Z,74.00
2017-09-23T09:20:03.609Z,74.70
2017-09-23T09:22:31.805Z,73.70
2017-09-23T09:25:00.004Z,74.10
2017-09-23T09:27:28.192Z,73.40
2017-09-23T09:29:56.366Z,73.30
2017-09-23T09:32:24.563Z,72.50
2017-09-23T09:34:53.757Z,71.70
2017-09-23T09:37:22.711Z,71.90
2017-09-23T09:39:50.909Z,71.90
2017-09-23T09:42:19.888Z,73.20
2017-09-23T09:44:48.081Z,72.50
2017-09-23T09:47:17.047Z,71.10
2017-09-23T09:49:45.202Z,71.10
2017-09-23T09:52:13.401Z,69.80
2017-09-23T09:54:41.583Z,69.30
2017-09-23T09:57:10.556Z,67.60
2017-09-23T09:59:39.772Z,67.60
2017-09-23T10:02:07.986Z,67.00
2017-09-23T10:04:37.037Z,67.00
2017-09-23T10:07:05.224Z,66.10
2017-09-23T10:09:34.913Z,65.70
2017-09-23T10:12:03.113Z,65.60
2017-09-23T10:14:33.078Z,65.80
2017-09-23T10:17:01.261Z,65.70
2017-09-23T10:19:29.462Z,66.40
2017-09-23T10:21:57.652Z,66.50
2017-09-23T10:24:26.586Z,65.30
2017-09-23T10:26:54.803Z,65.20
2017-09-23T10:29:23.170Z,64.80
2017-09-23T10:31:51.363Z,65.50
2017-09-23T10:34:20.338Z,66.10
2017-09-23T10:36:48.541Z,66.30
2017-09-23T10:39:17.492Z,66.10
2017-09-23T10:41:45.703Z,66.00
2017-09-23T10:44:15.275Z,66.30
2017-09-23T10:46:43.466Z,66.30
2017-09-23T10:49:14.167Z,63.90
2017-09-23T10:51:42.356Z,63.90
2017-09-23T10:54:10.534Z,63.30
2017-09-23T10:56:38.741Z,63.00
2017-09-23T10:59:07.907Z,62.10
2017-09-23T11:01:36.104Z,62.00
2017-09-23T11:04:05.081Z,62.20
2017-09-23T11:06:34.772Z,62.50
2017-09-23T11:09:02.936Z,62.50
2017-09-23T11:11:31.127Z,61.40
2017-09-23T11:13:59.324Z,61.20
2017-09-23T11:16:27.502Z,61.00
2017-09-23T11:18:55.777Z,60.40
2017-09-23T11:21:24.108Z,61.20
2017-09-23T11:23:52.454Z,61.50
2017-09-23T11:26:21.387Z,59.80
2017-09-23T11:35:38.029Z,58.80
2017-09-23T11:38:06.938Z,60.90
2017-09-23T11:40:35.136Z,62.60
2017-09-23T11:43:03.318Z,61.50
2017-09-23T11:45:31.727Z,61.70
2017-09-23T11:48:00.016Z,59.80
2017-09-23T11:50:28.196Z,59.60
2017-09-23T11:52:56.385Z,59.60
2017-09-23T11:55:25.466Z,59.60
2017-09-23T11:57:53.666Z,59.60
2017-09-23T12:00:22.118Z,58.80
2017-09-23T12:02:50.317Z,59.40
2017-09-23T12:05:18.543Z,59.10
2017-09-23T12:07:47.677Z,59.20
2017-09-23T12:10:15.932Z,59.20
2017-09-23T12:12:44.179Z,58.40
2017-09-23T12:15:12.548Z,57.50
2017-09-23T12:17:41.699Z,56.80
2017-09-23T12:20:09.901Z,57.00
2017-09-23T12:22:38.261Z,57.10
2017-09-23T12:25:06.652Z,57.10
2017-09-23T12:27:34.835Z,58.30
2017-09-23T12:30:03.040Z,57.70
2017-09-23T12:32:32.049Z,57.70
2017-09-23T12:35:00.998Z,57.20
2017-09-23T12:37:29.226Z,57.20
2017-09-23T12:39:57.418Z,57.60
2017-09-23T12:42:26.623Z,57.00
2017-09-23T12:44:54.939Z,57.30
2017-09-23T12:47:23.268Z,57.60
2017-09-23T12:49:51.447Z,57.00
2017-09-23T12:52:19.698Z,55.70
2017-09-23T12:54:48.402Z,55.40
2017-09-23T12:57:16.622Z,55.20
2017-09-23T12:59:44.995Z,55.70
2017-09-23T13:02:19.088Z,56.00
2017-09-23T13:04:47.283Z,56.40
2017-09-23T13:07:15.494Z,56.30
2017-09-23T13:09:44.458Z,53.80
2017-09-23T13:12:13.589Z,53.60
2017-09-23T13:14:41.782Z,52.20
2017-09-23T13:17:09.991Z,48.70
2017-09-23T13:19:38.447Z,49.40
2017-09-23T13:22:06.636Z,49.70
2017-09-23T13:24:35.600Z,48.40
2017-09-23T13:27:03.823Z,48.30
2017-09-23T13:29:32.014Z,46.70
2017-09-23T13:32:01.988Z,41.20
2017-09-23T13:34:30.203Z,41.10
2017-09-23T13:36:59.202Z,45.10
2017-09-23T13:39:28.234Z,48.00
2017-09-23T13:41:56.404Z,47.90
2017-09-23T13:44:24.583Z,51.10
2017-09-23T13:46:53.723Z,52.40
2017-09-23T13:49:21.933Z,49.10
2017-09-23T13:51:50.126Z,43.80
2017-09-23T13:54:18.361Z,40.70
2017-09-23T13:56:47.395Z,38.90
2017-09-23T13:59:15.594Z,38.80
2017-09-23T14:01:43.773Z,37.60
2017-09-23T14:04:11.971Z,36.50
2017-09-23T14:06:41.327Z,33.30
2017-09-23T14:09:09.543Z,33.80
2017-09-23T14:11:37.770Z,32.80
2017-09-23T14:14:05.962Z,32.80
2017-09-23T14:16:34.177Z,35.50
2017-09-23T14:19:03.135Z,36.20
2017-09-23T14:21:31.348Z,36.20
2017-09-23T14:24:00.295Z,35.40
2017-09-23T14:26:28.478Z,35.30
2017-09-23T14:28:56.768Z,35.70
2017-09-23T14:31:25.993Z,35.70
2017-09-23T14:33:55.044Z,34.40
2017-09-23T14:36:24.205Z,34.40
2017-09-23T14:38:52.427Z,32.80
2017-09-23T14:41:20.650Z,33.60
2017-09-23T14:43:48.839Z,32.70
2017-09-23T14:46:17.776Z,32.10
2017-09-23T14:48:45.972Z,32.00
2017-09-23T14:51:14.149Z,32.10
2017-09-23T14:53:42.349Z,31.60
2017-09-23T14:56:10.553Z,31.10
2017-09-23T14:58:38.874Z,31.10
2017-09-23T15:01:07.079Z,32.90
2017-09-23T15:03:35.282Z,34.20
2017-09-23T15:06:03.481Z,33.70
2017-09-23T15:08:31.660Z,31.30
2017-09-23T15:11:00.806Z,29.80
2017-09-23T15:13:29.762Z,30.10
2017-09-23T15:15:57.954Z,30.10
2017-09-23T15:18:26.157Z,33.70
2017-09-23T15:20:55.095Z,32.00
2017-09-23T15:23:23.277Z,32.00
2017-09-23T15:25:51.459Z,33.40
2017-09-23T15:28:19.648Z,34.00
2017-09-23T15:30:47.829Z,34.20
2017-09-23T15:33:16.776Z,33.90
2017-09-23T15:35:44.953Z,33.80
2017-09-23T15:38:13.128Z,31.40
2017-09-23T15:40:41.319Z,32.00
2017-09-23T15:43:09.500Z,32.20
2017-09-23T15:45:37.708Z,32.00
2017-09-23T15:48:06.651Z,34.40
2017-09-23T15:50:34.836Z,34.30
2017-09-23T15:53:03.026Z,37.10
2017-09-23T15:55:31.197Z,38.90
2017-09-23T15:58:00.193Z,43.30
2017-09-23T16:00:28.390Z,43.20
2017-09-23T16:02:57.336Z,45.00
2017-09-23T16:05:25.523Z,45.00
2017-09-23T16:07:53.732Z,45.40
2017-09-23T16:10:22.686Z,47.70
2017-09-23T16:12:50.854Z,47.60
2017-09-23T16:15:19.051Z,47.90
2017-09-23T16:17:47.998Z,48.90
2017-09-23T16:20:16.224Z,48.80
2017-09-23T16:22:44.401Z,49.40
2017-09-23T16:25:14.366Z,50.20
2017-09-23T16:27:42.547Z,50.20
2017-09-23T16:30:10.766Z,50.10
2017-09-23T16:32:39.696Z,51.00
2017-09-23T16:35:08.698Z,50.90
2017-09-23T16:37:36.893Z,50.90
2017-09-23T16:40:05.062Z,51.20
2017-09-23T16:42:33.277Z,50.80
2017-09-23T16:45:02.256Z,52.10
2017-09-23T16:47:30.470Z,52.10
2017-09-23T16:49:58.668Z,52.30
2017-09-23T16:52:26.867Z,53.40
2017-09-23T16:54:55.027Z,53.90
2017-09-23T16:57:23.206Z,54.60
2017-09-23T16:59:51.792Z,55.30
2017-09-23T17:02:19.966Z,55.20
2017-09-23T17:04:48.189Z,55.20
2017-09-23T17:07:16.411Z,55.70
2017-09-23T17:09:45.354Z,57.90
2017-09-23T17:12:13.538Z,57.90
2017-09-23T17:14:41.941Z,58.70
2017-09-23T17:17:10.144Z,59.30
2017-09-23T17:19:38.312Z,59.30
2017-09-23T17:22:06.535Z,60.60
2017-09-23T17:24:34.692Z,60.60
2017-09-23T17:27:02.904Z,61.10
2017-09-23T17:29:31.866Z,61.40
2017-09-23T17:32:00.053Z,61.40
2017-09-23T17:34:28.257Z,61.30
2017-09-23T17:36:56.411Z,62.50
2017-09-23T17:39:24.600Z,63.10
2017-09-23T17:41:52.794Z,63.20
2017-09-23T17:44:21.001Z,64.30
2017-09-23T17:46:49.170Z,65.00
2017-09-23T17:49:17.392Z,66.30
2017-09-23T17:51:46.305Z,67.30
2017-09-23T17:54:15.266Z,67.50
2017-09-23T17:56:43.490Z,67.00
2017-09-23T17:59:12.425Z,67.00
2017-09-23T18:01:40.625Z,67.00
2017-09-23T18:04:08.863Z,66.20
2017-09-23T18:06:37.038Z,65.80
2017-09-23T18:09:05.231Z,65.80
2017-09-23T18:11:34.197Z,67.00
2017-09-23T18:14:03.119Z,68.10
2017-09-23T18:16:31.355Z,68.00
2017-09-23T18:19:00.355Z,67.90
2017-09-23T18:21:28.542Z,67.90
2017-09-23T18:23:56.729Z,68.80
2017-09-23T18:26:24.902Z,69.10
2017-09-23T18:28:53.099Z,68.90
2017-09-23T18:31:21.291Z,69.10
2017-09-23T18:33:49.462Z,69.90
2017-09-23T18:36:17.648Z,70.00
2017-09-23T18:38:46.579Z,69.00
2017-09-23T18:41:14.767Z,68.90
2017-09-23T18:43:42.989Z,69.50
2017-09-23T18:46:11.953Z,69.40
2017-09-23T18:48:40.887Z,70.10
2017-09-23T18:51:09.057Z,69.40
2017-09-23T18:53:37.292Z,69.90
2017-09-23T18:56:06.434Z,70.30
2017-09-23T18:58:34.652Z,70.50
2017-09-23T19:01:02.813Z,70.80
2017-09-23T19:03:31.005Z,71.90
2017-09-23T19:05:59.187Z,72.90
2017-09-23T19:08:27.384Z,73.00
2017-09-23T19:10:56.351Z,74.40
2017-09-23T19:13:24.547Z,74.40
2017-09-23T19:15:53.508Z,74.20
2017-09-23T19:18:21.731Z,73.70
2017-09-23T19:20:49.910Z,73.60
2017-09-23T19:23:19.144Z,73.90
2017-09-23T19:25:47.316Z,73.90
2017-09-23T19:28:15.520Z,73.50
2017-09-23T19:30:43.705Z,73.00
2017-09-23T19:33:11.908Z,72.50
2017-09-23T19:35:40.152Z,72.00
2017-09-23T19:38:09.150Z,72.50
2017-09-23T19:40:37.332Z,71.90
2017-09-23T19:43:06.282Z,72.40
2017-09-23T19:45:34.478Z,72.40
2017-09-23T19:48:02.812Z,72.00
2017-09-23T19:50:30.988Z,71.20
2017-09-23T19:52:59.948Z,71.20
2017-09-23T19:55:28.887Z,71.60
2017-09-23T19:57:57.084Z,71.50
2017-09-23T20:00:26.020Z,71.60
2017-09-23T20:02:54.206Z,72.20
2017-09-23T20:05:22.404Z,73.60
2017-09-23T20:07:50.562Z,74.20
2017-09-23T20:10:18.773Z,73.20
2017-09-23T20:12:46.934Z,72.60
2017-09-23T20:15:15.886Z,74.80
2017-09-23T20:17:44.062Z,74.80
2017-09-23T20:20:12.243Z,75.40
2017-09-23T20:22:40.470Z,74.70
2017-09-23T20:25:08.665Z,74.10
2017-09-23T20:27:37.603Z,73.60
2017-09-23T20:30:05.772Z,73.60
2017-09-23T20:32:33.962Z,74.10
2017-09-23T20:35:02.149Z,73.50
2017-09-23T20:37:32.052Z,74.60
2017-09-23T20:40:00.248Z,74.60
2017-09-23T20:42:28.434Z,74.90
2017-09-23T20:44:57.379Z,73.70
2017-09-23T20:47:25.545Z,73.50
2017-09-23T20:49:53.757Z,73.10
2017-09-23T20:52:21.952Z,74.20
2017-09-23T20:54:50.910Z,74.70
2017-09-23T20:57:19.831Z,75.30
2017-09-23T20:59:48.820Z,75.00
2017-09-23T21:02:17.785Z,74.30
2017-09-23T21:04:45.970Z,74.20
2017-09-23T21:07:14.149Z,74.20
2017-09-23T21:09:43.098Z,73.50
2017-09-23T21:12:11.324Z,73.50
2017-09-23T21:14:40.992Z,73.90
2017-09-23T21:17:09.171Z,73.90
2017-09-23T21:19:37.330Z,73.80
2017-09-23T21:22:05.533Z,73.30
2017-09-23T21:24:33.703Z,73.90
2017-09-23T21:27:01.914Z,74.20
2017-09-23T21:29:30.854Z,73.70
2017-09-23T21:31:59.019Z,73.70
2017-09-23T21:34:27.219Z,74.20
2017-09-23T21:36:55.374Z,72.80
2017-09-23T21:39:24.637Z,72.00
2017-09-23T21:41:53.572Z,73.90
2017-09-23T21:44:21.757Z,73.90
2017-09-23T21:46:49.922Z,73.60
2017-09-23T21:49:18.095Z,73.00
2017-09-23T21:51:46.302Z,73.60
2017-09-23T21:54:14.463Z,72.80
2017-09-23T21:56:42.717Z,73.80
2017-09-23T21:59:11.210Z,73.50
2017-09-23T22:01:39.402Z,73.40
2017-09-23T22:04:07.579Z,73.50
2017-09-23T22:06:35.765Z,75.20
2017-09-23T22:09:04.708Z,74.20
2017-09-23T22:11:32.858Z,74.10
2017-09-23T22:14:01.038Z,73.60
2017-09-23T22:16:29.195Z,73.70
2017-09-23T22:18:57.379Z,75.30
2017-09-23T22:21:25.551Z,76.40
2017-09-23T22:23:53.713Z,75.60
2017-09-23T22:26:21.917Z,77.10
2017-09-23T22:28:50.852Z,75.70
2017-09-23T22:31:19.022Z,75.70
2017-09-23T22:33:47.958Z,76.70
2017-09-23T22:36:16.142Z,76.70
2017-09-23T22:38:44.306Z,76.70
2017-09-23T22:41:12.499Z,76.60
2017-09-23T22:43:40.680Z,77.00
2017-09-23T22:46:08.829Z,76.30
2017-09-23T22:48:37.012Z,76.80
2017-09-23T22:51:05.214Z,75.90
2017-09-23T22:53:33.374Z,74.50
2017-09-23T22:56:01.528Z,74.20
2017-09-23T22:58:30.530Z,74.20
2017-09-23T23:00:58.750Z,74.20
2017-09-23T23:03:26.941Z,74.80
2017-09-23T23:05:55.874Z,76.00
2017-09-23T23:08:24.024Z,76.00
2017-09-23T23:10:52.204Z,77.80
2017-09-23T23:13:21.130Z,77.80
2017-09-23T23:15:49.334Z,77.80
2017-09-23T23:18:18.268Z,76.00
2017-09-23T23:20:46.445Z,76.00
2017-09-23T23:23:14.610Z,74.80
2017-09-23T23:25:42.812Z,74.70
2017-09-23T23:28:10.962Z,75.40
2017-09-23T23:30:39.141Z,75.10
2017-09-23T23:33:07.349Z,74.60
2017-09-23T23:35:35.522Z,74.20
2017-09-23T23:38:03.695Z,73.60
2017-09-23T23:40:31.866Z,73.70
2017-09-23T23:43:00.063Z,73.20
2017-09-23T23:45:28.234Z,72.20
2017-09-23T23:47:56.422Z,72.30
2017-09-23T23:50:24.627Z,72.20
2017-09-23T23:52:52.817Z,74.10
2017-09-23T23:55:21.014Z,73.70
2017-09-23T23:57:49.182Z,72.60
